createdAt,value
2022-08-11T00:00:54.080Z,17.4
2022-08-11T00:02:57.609Z,17.5
2022-08-11T00:05:00.954Z,17.5
2022-08-11T00:07:07.513Z,17.4
2022-08-11T00:09:10.975Z,17.3
2022-08-11T00:11:14.404Z,17.3
2022-08-11T00:13:17.797Z,17.3
2022-08-11T00:15:21.254Z,17.4
2022-08-11T00:17:24.681Z,17.2
2022-08-11T00:22:04.752Z,17
2022-08-11T00:27:44.992Z,17.1
2022-08-11T00:33:55.353Z,17.2
2022-08-11T00:38:05.292Z,17
2022-08-11T00:40:08.745Z,17
2022-08-11T00:42:12.126Z,17
2022-08-11T00:44:15.556Z,17
2022-08-11T00:46:19.020Z,17
2022-08-11T00:48:22.510Z,16.9
2022-08-11T00:50:28.941Z,16.9
2022-08-11T00:52:32.459Z,16.9
2022-08-11T00:54:35.812Z,16.9
2022-08-11T00:55:39.066Z,16.7
2022-08-11T00:59:45.925Z,16.8
2022-08-11T01:03:55.910Z,16.6
2022-08-11T01:05:59.321Z,16.6
2022-08-11T01:16:16.575Z,16.7
2022-08-11T01:20:47.806Z,16.5
2022-08-11T01:22:30.024Z,16.3
2022-08-11T01:26:36.899Z,16.3
2022-08-11T01:30:43.823Z,16.3
2022-08-11T01:32:50.408Z,16.3
2022-08-11T01:34:53.817Z,16.2
2022-08-11T01:41:04.177Z,16.1
2022-08-11T01:43:07.646Z,16.2
2022-08-11T01:47:17.658Z,15.9
2022-08-11T01:50:06.424Z,16
2022-08-11T01:51:24.605Z,15.9
2022-08-11T01:53:54.510Z,15.9
2022-08-11T01:55:57.999Z,15.8
2022-08-11T01:58:01.454Z,15.9
2022-08-11T02:04:14.949Z,15.8
2022-08-11T02:06:18.413Z,15.8
2022-08-11T02:10:29.656Z,15.8
2022-08-11T02:14:36.984Z,15.7
2022-08-11T02:18:43.889Z,15.8
2022-08-11T02:20:47.458Z,15.8
2022-08-11T02:22:50.840Z,15.9
2022-08-11T02:24:54.344Z,15.7
2022-08-11T02:26:57.811Z,15.6
2022-08-11T02:29:04.384Z,15.6
2022-08-11T02:31:08.848Z,15.7
2022-08-11T02:35:14.844Z,15.6
2022-08-11T02:37:23.565Z,15.4
2022-08-11T02:41:25.287Z,15.6
2022-08-11T02:43:31.839Z,15.6
2022-08-11T02:45:35.371Z,15.6
2022-08-11T02:47:38.811Z,15.4
2022-08-11T02:50:45.610Z,15.4
2022-08-11T02:52:49.115Z,15.3
2022-08-11T02:54:52.609Z,15
2022-08-11T02:56:59.195Z,15.1
2022-08-11T03:13:30.234Z,14.9
2022-08-11T03:19:40.725Z,15.2
2022-08-11T03:34:08.500Z,15
2022-08-11T03:44:28.909Z,14.9
2022-08-11T03:45:32.190Z,15
2022-08-11T03:47:35.728Z,14.7
2022-08-11T03:49:39.241Z,15.2
2022-08-11T03:51:51.922Z,14.8
2022-08-11T03:53:49.291Z,14.7
2022-08-11T03:55:52.798Z,14.9
2022-08-11T03:57:56.299Z,15
2022-08-11T03:59:59.807Z,15.2
2022-08-11T04:02:03.382Z,14.8
2022-08-11T04:04:06.795Z,14.9
2022-08-11T04:06:10.307Z,14.6
2022-08-11T04:08:16.886Z,15.1
2022-08-11T04:10:20.398Z,15.1
2022-08-11T04:12:36.084Z,14.5
2022-08-11T04:14:27.373Z,14.8
2022-08-11T04:16:30.864Z,14.7
2022-08-11T04:18:34.363Z,14.7
2022-08-11T04:20:37.887Z,14.7
2022-08-11T04:22:44.469Z,14.7
2022-08-11T04:24:50.411Z,14.7
2022-08-11T04:26:51.498Z,14.6
2022-08-11T04:28:55.001Z,14.6
2022-08-11T04:30:58.458Z,14.5
2022-08-11T04:33:01.948Z,14.6
2022-08-11T04:35:05.465Z,14.6
2022-08-11T04:37:12.088Z,14.6
2022-08-11T04:39:15.638Z,14.7
2022-08-11T04:41:19.110Z,14.6
2022-08-11T04:42:22.423Z,14.6
2022-08-11T04:44:26.533Z,14.6
2022-08-11T04:46:29.436Z,14.6
2022-08-11T04:50:39.540Z,14.7
2022-08-11T04:52:43.260Z,14.7
2022-08-11T04:54:46.563Z,14.7
2022-08-11T04:56:50.080Z,14.7
2022-08-11T04:58:53.578Z,14.7
2022-08-11T05:00:57.065Z,14.7
2022-08-11T05:03:00.607Z,14.8
2022-08-11T05:05:07.213Z,14.9
2022-08-11T05:07:10.693Z,14.9
2022-08-11T05:13:21.233Z,15
2022-08-11T05:15:24.774Z,15.1
2022-08-11T05:17:28.278Z,15.2
2022-08-11T05:19:34.881Z,15.3
2022-08-11T05:21:45.148Z,15.3
2022-08-11T05:23:41.915Z,15.3
2022-08-11T05:27:48.942Z,15.5
2022-08-11T05:29:52.474Z,15.5
2022-08-11T05:31:56.041Z,15.6
2022-08-11T05:40:39.490Z,16
2022-08-11T05:44:46.458Z,16.1
2022-08-11T05:48:56.579Z,16.2
2022-08-11T05:51:00.048Z,16.3
2022-08-11T05:53:03.850Z,16.4
2022-08-11T05:55:07.430Z,16.4
2022-08-11T05:57:10.521Z,16.5
2022-08-11T05:59:14.038Z,16.7
2022-08-11T06:01:20.655Z,16.8
2022-08-11T06:03:24.098Z,16.8
2022-08-11T06:05:27.593Z,17
2022-08-11T06:07:49.122Z,17.1
2022-08-11T06:09:34.575Z,17.1
2022-08-11T06:11:43.016Z,17.2
2022-08-11T06:13:41.544Z,17.3
2022-08-11T06:15:48.140Z,17.4
2022-08-11T06:17:51.618Z,17.5
2022-08-11T06:19:55.084Z,17.6
2022-08-11T06:21:58.544Z,17.7
2022-08-11T06:24:02.052Z,17.8
2022-08-11T06:26:05.521Z,18
2022-08-11T06:35:25.757Z,18.5
2022-08-11T06:37:32.172Z,18.6
2022-08-11T06:41:36.089Z,18.9
2022-08-11T06:43:42.642Z,19
2022-08-11T06:47:49.489Z,19
2022-08-11T06:49:52.936Z,19.2
2022-08-11T06:51:56.353Z,19.4
2022-08-11T06:54:04.065Z,19.6
2022-08-11T06:56:03.270Z,19.7
2022-08-11T06:58:09.761Z,19.8
2022-08-11T07:00:13.153Z,19.9
2022-08-11T07:02:16.610Z,20
2022-08-11T07:04:20.003Z,20.3
2022-08-11T07:06:23.442Z,20.4
2022-08-11T07:08:34.367Z,20.5
2022-08-11T07:10:30.215Z,20.6
2022-08-11T07:12:36.663Z,21.2
2022-08-11T07:14:39.857Z,21.6
2022-08-11T07:16:43.158Z,23
2022-08-11T07:18:46.593Z,22.9
2022-08-11T07:20:49.835Z,22.4
2022-08-11T07:22:53.233Z,22
2022-08-11T07:25:01.971Z,21.8
2022-08-11T07:27:02.861Z,21.9
2022-08-11T07:29:06.364Z,22
2022-08-11T07:31:09.478Z,22.4
2022-08-11T07:34:18.092Z,22.6
2022-08-11T07:40:28.576Z,22.6
2022-08-11T07:44:35.472Z,23.1
2022-08-11T07:48:41.459Z,23.5
2022-08-11T07:50:44.683Z,23.7
2022-08-11T07:52:47.861Z,23.9
2022-08-11T07:54:54.113Z,23.9
2022-08-11T07:57:09.419Z,23.8
2022-08-11T07:59:07.489Z,24
2022-08-11T08:01:03.751Z,24.2
2022-08-11T08:03:06.814Z,24.1
2022-08-11T08:05:10.002Z,24.3
2022-08-11T08:07:13.201Z,24.5
2022-08-11T08:11:27.081Z,25.2
2022-08-11T08:13:27.133Z,25.5
2022-08-11T08:17:33.421Z,26.8
2022-08-11T08:19:36.542Z,26.5
2022-08-11T08:23:45.781Z,26.2
2022-08-11T08:25:48.887Z,26.2
2022-08-11T08:27:51.963Z,26.2
2022-08-11T08:28:55.036Z,26.5
2022-08-11T08:30:58.149Z,26.5
2022-08-11T08:33:01.214Z,26.5
2022-08-11T08:35:04.274Z,27.5
2022-08-11T08:37:16.042Z,27.4
2022-08-11T08:39:13.503Z,27.1
2022-08-11T08:41:16.782Z,27.1
2022-08-11T08:43:19.512Z,27.4
2022-08-11T08:45:22.567Z,27.6
2022-08-11T08:52:01.007Z,28.6
2022-08-11T08:53:37.671Z,29
2022-08-11T08:55:45.338Z,29.5
2022-08-11T08:57:43.831Z,29.3
2022-08-11T08:59:48.865Z,28.6
2022-08-11T09:01:49.709Z,28.2
2022-08-11T09:04:06.991Z,27.8
2022-08-11T09:05:58.662Z,27.8
2022-08-11T09:08:01.618Z,28
2022-08-11T09:10:04.549Z,28.3
2022-08-11T09:16:13.402Z,29.1
2022-08-11T09:18:16.294Z,28.9
2022-08-11T09:22:25.221Z,28.7
2022-08-11T09:26:51.797Z,28.8
2022-08-11T09:28:54.676Z,29
2022-08-11T09:33:03.539Z,29.9
2022-08-11T09:35:06.433Z,29.8
2022-08-11T09:41:15.033Z,30
2022-08-11T09:43:17.892Z,30.3
2022-08-11T09:45:20.747Z,30.3
2022-08-11T09:47:26.707Z,30.4
2022-08-11T09:49:29.521Z,30.5
2022-08-11T09:51:32.372Z,30.5
2022-08-11T09:53:40.553Z,30.6
2022-08-11T09:55:38.041Z,30.4
2022-08-11T09:57:41.099Z,30.6
2022-08-11T09:59:43.696Z,30.8
2022-08-11T10:01:49.598Z,30.6
2022-08-11T10:03:52.404Z,30.9
2022-08-11T10:05:55.209Z,31.2
2022-08-11T10:07:58.015Z,30.8
2022-08-11T10:16:15.228Z,30.7
2022-08-11T10:21:20.666Z,31.2
2022-08-11T10:23:23.437Z,31.2
2022-08-11T10:25:26.174Z,31.5
2022-08-11T10:28:16.939Z,31.3
2022-08-11T10:33:45.739Z,31.7
2022-08-11T10:35:42.884Z,31.7
2022-08-11T10:42:06.184Z,31.6
2022-08-11T10:44:03.080Z,30.9
2022-08-11T10:45:59.550Z,30.7
2022-08-11T10:48:02.248Z,31.4
2022-08-11T10:50:05.328Z,32.1
2022-08-11T10:52:07.633Z,32.2
2022-08-11T10:54:12.426Z,32.3
2022-08-11T10:56:12.999Z,31.9
2022-08-11T10:58:18.809Z,32
2022-08-11T11:00:21.429Z,32.1
2022-08-11T11:02:24.079Z,32.3
2022-08-11T11:04:26.712Z,32.2
2022-08-11T11:06:30.028Z,32.5
2022-08-11T11:08:31.918Z,33.1
2022-08-11T11:10:34.510Z,32.9
2022-08-11T11:12:40.624Z,32.7
2022-08-11T11:14:46.374Z,32.6
2022-08-11T11:16:45.230Z,32.6
2022-08-11T11:17:48.060Z,32.8
2022-08-11T11:19:50.546Z,33
2022-08-11T11:23:56.080Z,32.7
2022-08-11T11:28:03.445Z,32.7
2022-08-11T11:30:05.874Z,33
2022-08-11T11:32:08.227Z,32.8
2022-08-11T11:36:13.004Z,32.4
2022-08-11T11:38:15.354Z,32.1
2022-08-11T11:40:20.838Z,32.9
2022-08-11T11:42:23.148Z,33
2022-08-11T11:44:25.465Z,33.1
2022-08-11T11:46:30.190Z,33.4
2022-08-11T11:48:30.119Z,33.4
2022-08-11T11:52:34.564Z,33.6
2022-08-11T11:58:44.375Z,33.6
2022-08-11T12:00:46.492Z,33.4
2022-08-11T12:02:48.639Z,34.1
2022-08-11T12:04:50.751Z,33.4
2022-08-11T12:06:52.797Z,33.2
2022-08-11T12:08:58.055Z,33.3
2022-08-11T12:11:00.218Z,33.3
2022-08-11T12:13:02.309Z,33.5
2022-08-11T12:14:10.198Z,33.6
2022-08-11T12:16:33.611Z,33.7
2022-08-11T12:18:08.979Z,33.9
2022-08-11T12:20:33.815Z,33.4
2022-08-11T12:22:16.143Z,33
2022-08-11T12:24:18.175Z,33.2
2022-08-11T12:26:26.551Z,33.5
2022-08-11T12:28:22.239Z,33.8
2022-08-11T12:36:33.303Z,33.4
2022-08-11T12:38:35.307Z,33.3
2022-08-11T12:41:13.770Z,33.5
2022-08-11T12:42:39.284Z,33.6
2022-08-11T12:44:41.304Z,33.6
2022-08-11T12:46:43.276Z,33.7
2022-08-11T12:49:00.001Z,33.4
2022-08-11T12:50:50.327Z,32.7
2022-08-11T12:52:52.273Z,32.5
2022-08-11T12:54:54.250Z,32.9
2022-08-11T12:56:56.233Z,32.7
2022-08-11T12:58:58.221Z,32.9
2022-08-11T13:01:00.223Z,33.3
2022-08-11T13:03:02.160Z,33.4
2022-08-11T13:05:07.210Z,33.1
2022-08-11T13:09:11.188Z,33.1
2022-08-11T13:11:56.300Z,33.1
2022-08-11T13:17:44.315Z,33.4
2022-08-11T13:24:00.562Z,32.8
2022-08-11T13:25:48.529Z,33.2
2022-08-11T13:29:52.384Z,33.2
2022-08-11T13:33:59.466Z,33.2
2022-08-11T13:36:01.311Z,33.7
2022-08-11T13:38:18.678Z,33.9
2022-08-11T13:46:14.183Z,33.8
2022-08-11T13:48:16.139Z,33.8
2022-08-11T13:52:20.140Z,33.7
2022-08-11T13:54:22.071Z,34.2
2022-08-11T13:56:24.015Z,34.6
2022-08-11T13:58:39.620Z,34
2022-08-11T14:00:31.004Z,33.9
2022-08-11T14:02:33.062Z,34.5
2022-08-11T14:04:36.456Z,34.7
2022-08-11T14:05:38.925Z,34.8
2022-08-11T14:07:41.114Z,34.9
2022-08-11T14:09:42.819Z,35.7
2022-08-11T14:12:21.994Z,35.5
2022-08-11T14:13:49.878Z,35.3
2022-08-11T14:15:51.804Z,35
2022-08-11T14:17:54.141Z,35.3
2022-08-11T14:19:55.659Z,35.4
2022-08-11T14:21:57.593Z,35.6
2022-08-11T14:23:59.505Z,35.7
2022-08-11T14:26:02.333Z,35.4
2022-08-11T14:28:32.098Z,34.9
2022-08-11T14:30:08.364Z,34.9
2022-08-11T14:32:10.312Z,34.4
2022-08-11T14:34:12.257Z,35.1
2022-08-11T14:36:14.216Z,34.8
2022-08-11T14:38:16.271Z,34.7
2022-08-11T14:40:18.335Z,34
2022-08-11T14:42:23.599Z,33.1
2022-08-11T14:44:25.734Z,32.9
2022-08-11T14:46:27.914Z,32.8
2022-08-11T14:48:30.241Z,32.9
2022-08-11T14:50:32.213Z,32.6
2022-08-11T14:52:34.437Z,32.5
2022-08-11T14:54:36.684Z,32.3
2022-08-11T14:58:44.605Z,32.6
2022-08-11T15:00:46.806Z,32.2
2022-08-11T15:07:56.756Z,32.2
2022-08-11T15:10:12.827Z,32.3
2022-08-11T15:14:07.306Z,32.2
2022-08-11T15:16:09.776Z,32
2022-08-11T15:20:14.814Z,32
2022-08-11T15:22:17.394Z,31.9
2022-08-11T15:26:25.601Z,32.1
2022-08-11T15:28:28.175Z,32
2022-08-11T15:30:33.356Z,32.1
2022-08-11T15:32:33.365Z,32
2022-08-11T15:34:35.976Z,31.7
2022-08-11T15:36:38.612Z,31.8
2022-08-11T15:38:44.338Z,32.1
2022-08-11T15:40:46.968Z,32.1
2022-08-11T15:42:49.832Z,32
2022-08-11T15:45:02.753Z,31.9
2022-08-11T15:46:55.236Z,31.8
2022-08-11T15:48:57.747Z,32.1
2022-08-11T15:51:00.421Z,32.4
2022-08-11T15:53:06.188Z,32.1
2022-08-11T15:55:08.995Z,31.9
2022-08-11T15:57:11.511Z,31.8
2022-08-11T15:58:14.387Z,31.7
2022-08-11T16:00:17.094Z,31.7
2022-08-11T16:02:19.804Z,31.6
2022-08-11T16:04:36.819Z,31.7
2022-08-11T16:08:33.187Z,31.6
2022-08-11T16:10:33.903Z,31.6
2022-08-11T16:12:36.302Z,31.3
2022-08-11T16:14:38.991Z,31.6
2022-08-11T16:18:44.367Z,31.9
2022-08-11T16:27:05.618Z,31.5
2022-08-11T16:27:09.131Z,31.4
2022-08-11T16:29:00.989Z,31.5
2022-08-11T16:31:03.718Z,31.5
2022-08-11T16:33:48.316Z,31.5
2022-08-11T16:35:12.266Z,31.4
2022-08-11T16:37:14.981Z,31.3
2022-08-11T16:39:17.735Z,31.3
2022-08-11T16:41:20.414Z,31.3
2022-08-11T16:43:23.146Z,31.3
2022-08-11T16:45:25.858Z,31.3
2022-08-11T16:47:53.837Z,31.3
2022-08-11T16:49:35.025Z,31.5
2022-08-11T16:51:37.112Z,31.5
2022-08-11T16:53:54.737Z,31.5
2022-08-11T16:56:00.942Z,31.5
2022-08-11T17:00:06.410Z,31.3
2022-08-11T17:02:12.221Z,31.3
2022-08-11T17:06:17.692Z,31
2022-08-11T17:08:20.411Z,31.6
2022-08-11T17:10:31.825Z,32.1
2022-08-11T17:12:25.869Z,32.5
2022-08-11T17:14:36.114Z,32.1
2022-08-11T17:18:37.160Z,32
2022-08-11T17:20:43.949Z,31.3
2022-08-11T17:24:45.347Z,30.7
2022-08-11T17:28:50.809Z,30.5
2022-08-11T17:30:56.617Z,30.4
2022-08-11T17:33:00.257Z,30.4
2022-08-11T17:37:04.816Z,30.6
2022-08-11T17:39:07.547Z,30.4
2022-08-11T17:41:10.306Z,30.3
2022-08-11T17:43:13.061Z,30.3
2022-08-11T17:45:18.900Z,30.3
2022-08-11T17:47:24.644Z,30.2
2022-08-11T17:49:24.424Z,30
2022-08-11T17:50:27.341Z,30
2022-08-11T17:52:35.140Z,30
2022-08-11T17:56:35.638Z,30
2022-08-11T18:02:47.072Z,33.1
2022-08-11T18:04:49.819Z,33.9
2022-08-11T18:08:55.388Z,34
2022-08-11T18:10:58.131Z,34.4
2022-08-11T18:13:03.977Z,34.6
2022-08-11T18:15:06.725Z,34.6
2022-08-11T18:19:12.125Z,34.2
2022-08-11T18:21:14.826Z,34.2
2022-08-11T18:23:17.521Z,33.9
2022-08-11T18:25:20.219Z,33.8
2022-08-11T18:27:25.985Z,33.2
2022-08-11T18:29:28.656Z,32.9
2022-08-11T18:34:03.946Z,30
2022-08-11T18:35:36.642Z,29.1
2022-08-11T18:37:39.316Z,28.5
2022-08-11T18:39:42.207Z,28.2
2022-08-11T18:41:47.771Z,27.9
2022-08-11T18:43:50.451Z,27.7
2022-08-11T18:46:05.270Z,27.5
2022-08-11T18:46:56.258Z,27.3
2022-08-11T18:48:58.826Z,27.2
2022-08-11T18:51:30.485Z,27
2022-08-11T18:53:04.285Z,26.9
2022-08-11T18:55:10.450Z,26.7
2022-08-11T18:57:12.949Z,26.6
2022-08-11T18:59:15.756Z,26.4
2022-08-11T19:01:18.614Z,26.3
2022-08-11T19:03:21.388Z,26.1
2022-08-11T19:06:06.169Z,26
2022-08-11T19:07:27.063Z,25.9
2022-08-11T19:09:32.983Z,25.6
2022-08-11T19:11:38.188Z,25.6
2022-08-11T19:13:43.322Z,25.5
2022-08-11T19:15:41.636Z,25.4
2022-08-11T19:17:46.022Z,25.3
2022-08-11T19:19:47.911Z,25.3
2022-08-11T19:21:50.387Z,25.2
2022-08-11T19:23:56.389Z,25
2022-08-11T19:25:59.335Z,25
2022-08-11T19:28:02.291Z,25
2022-08-11T19:30:14.005Z,24.9
2022-08-11T19:32:08.184Z,24.8
2022-08-11T19:34:11.182Z,24.8
2022-08-11T19:36:14.152Z,24.7
2022-08-11T19:38:20.251Z,24.5
2022-08-11T19:40:23.141Z,24.5
2022-08-11T19:42:26.102Z,24.4
2022-08-11T19:43:29.151Z,24.3
2022-08-11T19:47:35.083Z,24.2
2022-08-11T19:53:47.093Z,23.9
2022-08-11T19:55:50.088Z,23.8
2022-08-11T19:59:57.594Z,23.6
2022-08-11T20:06:09.645Z,23.5
2022-08-11T20:08:12.679Z,23.5
2022-08-11T20:10:15.673Z,23.5
2022-08-11T20:16:24.778Z,23.4
2022-08-11T20:18:27.802Z,23.3
2022-08-11T20:20:33.866Z,23.2
2022-08-11T20:22:36.919Z,23.2
2022-08-11T20:24:39.953Z,23.1
2022-08-11T20:26:42.996Z,23
2022-08-11T20:28:46.081Z,23
2022-08-11T20:30:49.124Z,22.9
2022-08-11T20:37:01.391Z,22.6
2022-08-11T20:39:04.439Z,22.6
2022-08-11T20:41:27.815Z,22.5
2022-08-11T20:44:05.977Z,22.5
2022-08-11T20:53:50.905Z,22.3
2022-08-11T20:55:53.520Z,22.3
2022-08-11T20:58:01.560Z,22.2
2022-08-11T20:59:58.805Z,22.1
2022-08-11T21:02:04.996Z,22
2022-08-11T21:04:08.060Z,22
2022-08-11T21:06:11.312Z,21.9
2022-08-11T21:20:36.209Z,21.6
2022-08-11T21:24:46.774Z,21.5
2022-08-11T21:26:45.712Z,21.5
2022-08-11T21:28:48.916Z,21.5
2022-08-11T21:30:57.658Z,21.4
2022-08-11T21:32:58.294Z,21.4
2022-08-11T21:35:01.466Z,21.4
2022-08-11T21:36:04.688Z,21.3
2022-08-11T21:38:07.862Z,21.3
2022-08-11T21:40:16.351Z,21.3
2022-08-11T21:42:14.226Z,21.3
2022-08-11T21:44:20.466Z,21.3
2022-08-11T21:48:26.825Z,21.2
2022-08-11T21:50:30.045Z,21.2
2022-08-11T21:52:33.216Z,21.2
2022-08-11T21:54:36.419Z,21.1
2022-08-11T21:56:39.619Z,21.1
2022-08-11T21:58:45.862Z,21
2022-08-11T22:00:49.067Z,21
2022-08-11T22:02:53.154Z,20.9
2022-08-11T22:04:55.498Z,20.9
2022-08-11T22:06:58.717Z,20.9
2022-08-11T22:09:01.962Z,20.9
2022-08-11T22:11:05.215Z,20.8
2022-08-11T22:17:17.862Z,20.7
2022-08-11T22:19:21.082Z,20.7
2022-08-11T22:22:02.413Z,20.6
2022-08-11T22:23:35.265Z,20.6
2022-08-11T22:25:38.559Z,20.6
2022-08-11T22:27:41.831Z,20.4
2022-08-11T22:32:46.958Z,20.3
2022-08-11T22:34:53.478Z,20.4
2022-08-11T22:38:56.678Z,20.2
2022-08-11T22:41:02.949Z,20.2
2022-08-11T22:43:06.183Z,20.2
2022-08-11T22:45:09.446Z,20.2
2022-08-11T22:47:12.690Z,20.2
2022-08-11T22:49:15.950Z,20.1
2022-08-11T22:53:22.434Z,19.9
2022-08-11T22:55:28.695Z,19.8
2022-08-11T22:59:35.321Z,19.8
2022-08-11T23:01:38.599Z,19.7
2022-08-11T23:03:41.909Z,19.7
2022-08-11T23:05:45.195Z,19.5
2022-08-11T23:07:49.853Z,19.5
2022-08-11T23:09:54.824Z,19.5
2022-08-11T23:12:06.565Z,19.5
2022-08-11T23:14:01.561Z,19.6
2022-08-11T23:16:04.913Z,19.6
2022-08-11T23:18:08.149Z,19.5
2022-08-11T23:22:14.715Z,19.5
2022-08-11T23:26:24.377Z,19.5
2022-08-11T23:28:27.765Z,19.4
2022-08-11T23:31:43.728Z,19.3
2022-08-11T23:37:47.561Z,19.1
2022-08-11T23:43:57.594Z,19
2022-08-11T23:46:00.887Z,19
2022-08-11T23:48:04.252Z,19
2022-08-11T23:50:08.670Z,19
2022-08-11T23:52:14.051Z,19
2022-08-11T23:54:17.437Z,19
2022-08-11T23:56:21.694Z,18.9
2022-08-11T23:58:24.126Z,18.9
